sensor_id;sensor_type;location;lat;lon;timestamp;P1;durP1;ratioP1;P2;durP2;ratioP2
5054;SDS011;13829;48.990;8.346;2022-12-05T00:00:47;37.53;;;20.93;;
5054;SDS011;13829;48.990;8.346;2022-12-05T00:03:14;42.30;;;21.10;;
5054;SDS011;13829;48.990;8.346;2022-12-05T00:05:41;40.33;;;22.17;;
5054;SDS011;13829;48.990;8.346;2022-12-05T00:08:08;43.60;;;21.60;;
5054;SDS011;13829;48.990;8.346;2022-12-05T00:10:36;37.73;;;21.73;;
5054;SDS011;13829;48.990;8.346;2022-12-05T00:13:04;41.00;;;20.83;;
5054;SDS011;13829;48.990;8.346;2022-12-05T00:15:34;43.67;;;22.10;;
5054;SDS011;13829;48.990;8.346;2022-12-05T00:18:03;37.50;;;21.70;;
5054;SDS011;13829;48.990;8.346;2022-12-05T00:20:30;37.60;;;20.23;;
5054;SDS011;13829;48.990;8.346;2022-12-05T00:22:58;49.20;;;23.17;;
5054;SDS011;13829;48.990;8.346;2022-12-05T00:25:25;41.63;;;21.73;;
5054;SDS011;13829;48.990;8.346;2022-12-05T00:27:54;41.30;;;21.83;;
5054;SDS011;13829;48.990;8.346;2022-12-05T00:30:21;45.13;;;22.90;;
5054;SDS011;13829;48.990;8.346;2022-12-05T00:32:48;43.40;;;23.37;;
5054;SDS011;13829;48.990;8.346;2022-12-05T00:35:15;38.93;;;21.23;;
5054;SDS011;13829;48.990;8.346;2022-12-05T00:37:42;39.37;;;21.23;;
5054;SDS011;13829;48.990;8.346;2022-12-05T00:40:09;41.33;;;22.33;;
5054;SDS011;13829;48.990;8.346;2022-12-05T00:42:36;38.70;;;21.30;;
5054;SDS011;13829;48.990;8.346;2022-12-05T00:45:05;38.90;;;21.57;;
5054;SDS011;13829;48.990;8.346;2022-12-05T00:47:33;45.20;;;22.37;;
5054;SDS011;13829;48.990;8.346;2022-12-05T00:50:01;44.53;;;22.37;;
5054;SDS011;13829;48.990;8.346;2022-12-05T00:52:28;43.10;;;21.03;;
5054;SDS011;13829;48.990;8.346;2022-12-05T00:54:55;43.90;;;21.60;;
5054;SDS011;13829;48.990;8.346;2022-12-05T00:57:22;50.77;;;23.33;;
5054;SDS011;13829;48.990;8.346;2022-12-05T00:59:49;43.33;;;22.43;;
5054;SDS011;13829;48.990;8.346;2022-12-05T01:02:17;43.63;;;21.63;;
5054;SDS011;13829;48.990;8.346;2022-12-05T01:04:44;31.70;;;19.90;;
5054;SDS011;13829;48.990;8.346;2022-12-05T01:07:11;38.10;;;20.03;;
5054;SDS011;13829;48.990;8.346;2022-12-05T01:09:38;38.17;;;20.60;;
5054;SDS011;13829;48.990;8.346;2022-12-05T01:12:05;45.77;;;21.20;;
5054;SDS011;13829;48.990;8.346;2022-12-05T01:14:33;57.33;;;21.90;;
5054;SDS011;13829;48.990;8.346;2022-12-05T01:16:59;42.50;;;21.97;;
5054;SDS011;13829;48.990;8.346;2022-12-05T01:19:29;49.00;;;21.93;;
5054;SDS011;13829;48.990;8.346;2022-12-05T01:21:58;56.97;;;22.63;;
5054;SDS011;13829;48.990;8.346;2022-12-05T01:24:25;53.30;;;22.90;;
5054;SDS011;13829;48.990;8.346;2022-12-05T01:26:54;41.13;;;20.73;;
5054;SDS011;13829;48.990;8.346;2022-12-05T01:29:22;43.57;;;23.50;;
5054;SDS011;13829;48.990;8.346;2022-12-05T01:31:50;41.13;;;22.47;;
5054;SDS011;13829;48.990;8.346;2022-12-05T01:34:18;49.97;;;22.60;;
5054;SDS011;13829;48.990;8.346;2022-12-05T01:36:46;37.30;;;20.57;;
5054;SDS011;13829;48.990;8.346;2022-12-05T01:39:13;37.73;;;21.63;;
5054;SDS011;13829;48.990;8.346;2022-12-05T01:41:42;68.97;;;23.40;;
5054;SDS011;13829;48.990;8.346;2022-12-05T01:47:24;44.20;;;21.53;;
5054;SDS011;13829;48.990;8.346;2022-12-05T01:49:56;44.40;;;21.37;;
5054;SDS011;13829;48.990;8.346;2022-12-05T01:52:25;42.83;;;21.43;;
5054;SDS011;13829;48.990;8.346;2022-12-05T01:54:57;37.33;;;21.10;;
5054;SDS011;13829;48.990;8.346;2022-12-05T01:57:31;37.17;;;19.70;;
5054;SDS011;13829;48.990;8.346;2022-12-05T01:59:59;37.80;;;20.93;;
5054;SDS011;13829;48.990;8.346;2022-12-05T02:02:35;33.53;;;18.50;;
5054;SDS011;13829;48.990;8.346;2022-12-05T02:05:04;38.50;;;19.83;;
5054;SDS011;13829;48.990;8.346;2022-12-05T02:07:37;34.73;;;19.43;;
5054;SDS011;13829;48.990;8.346;2022-12-05T02:10:07;37.13;;;20.50;;
5054;SDS011;13829;48.990;8.346;2022-12-05T02:12:35;38.20;;;19.63;;
5054;SDS011;13829;48.990;8.346;2022-12-05T02:15:11;44.13;;;21.07;;
5054;SDS011;13829;48.990;8.346;2022-12-05T02:18:03;39.77;;;20.77;;
5054;SDS011;13829;48.990;8.346;2022-12-05T02:20:48;42.97;;;22.03;;
5054;SDS011;13829;48.990;8.346;2022-12-05T02:23:44;38.87;;;21.97;;
5054;SDS011;13829;48.990;8.346;2022-12-05T02:26:51;38.70;;;20.40;;
5054;SDS011;13829;48.990;8.346;2022-12-05T02:32:46;39.17;;;20.03;;
5054;SDS011;13829;48.990;8.346;2022-12-05T02:35:32;39.23;;;19.13;;
5054;SDS011;13829;48.990;8.346;2022-12-05T02:38:12;36.43;;;19.10;;
5054;SDS011;13829;48.990;8.346;2022-12-05T02:40:53;39.53;;;20.53;;
5054;SDS011;13829;48.990;8.346;2022-12-05T02:43:36;35.13;;;18.53;;
5054;SDS011;13829;48.990;8.346;2022-12-05T02:46:11;36.00;;;18.80;;
5054;SDS011;13829;48.990;8.346;2022-12-05T02:48:44;35.60;;;18.03;;
5054;SDS011;13829;48.990;8.346;2022-12-05T02:51:16;31.53;;;16.30;;
5054;SDS011;13829;48.990;8.346;2022-12-05T02:53:49;34.60;;;19.20;;
5054;SDS011;13829;48.990;8.346;2022-12-05T02:56:19;31.13;;;16.90;;
5054;SDS011;13829;48.990;8.346;2022-12-05T02:58:47;27.47;;;16.30;;
5054;SDS011;13829;48.990;8.346;2022-12-05T03:01:20;27.87;;;15.43;;
5054;SDS011;13829;48.990;8.346;2022-12-05T03:03:51;30.93;;;15.90;;
5054;SDS011;13829;48.990;8.346;2022-12-05T03:06:20;27.23;;;16.57;;
5054;SDS011;13829;48.990;8.346;2022-12-05T03:08:55;28.30;;;16.23;;
5054;SDS011;13829;48.990;8.346;2022-12-05T03:11:27;25.63;;;15.50;;
5054;SDS011;13829;48.990;8.346;2022-12-05T03:14:01;26.97;;;16.30;;
5054;SDS011;13829;48.990;8.346;2022-12-05T03:16:37;23.90;;;14.63;;
5054;SDS011;13829;48.990;8.346;2022-12-05T03:19:10;21.83;;;13.37;;
5054;SDS011;13829;48.990;8.346;2022-12-05T03:21:42;24.73;;;14.73;;
5054;SDS011;13829;48.990;8.346;2022-12-05T03:24:17;23.47;;;14.43;;
5054;SDS011;13829;48.990;8.346;2022-12-05T03:26:45;24.97;;;15.43;;
5054;SDS011;13829;48.990;8.346;2022-12-05T03:29:24;21.03;;;13.10;;
5054;SDS011;13829;48.990;8.346;2022-12-05T03:32:04;24.83;;;15.50;;
5054;SDS011;13829;48.990;8.346;2022-12-05T03:34:44;24.53;;;15.27;;
5054;SDS011;13829;48.990;8.346;2022-12-05T03:37:24;27.07;;;15.27;;
5054;SDS011;13829;48.990;8.346;2022-12-05T03:40:05;25.87;;;15.43;;
5054;SDS011;13829;48.990;8.346;2022-12-05T03:42:41;21.17;;;13.67;;
5054;SDS011;13829;48.990;8.346;2022-12-05T03:45:21;22.03;;;13.77;;
5054;SDS011;13829;48.990;8.346;2022-12-05T03:48:00;22.00;;;13.97;;
5054;SDS011;13829;48.990;8.346;2022-12-05T03:50:36;23.83;;;14.60;;
5054;SDS011;13829;48.990;8.346;2022-12-05T03:53:09;20.90;;;14.37;;
5054;SDS011;13829;48.990;8.346;2022-12-05T03:55:43;24.47;;;15.17;;
5054;SDS011;13829;48.990;8.346;2022-12-05T03:58:16;19.97;;;14.03;;
5054;SDS011;13829;48.990;8.346;2022-12-05T04:00:51;21.93;;;13.90;;
5054;SDS011;13829;48.990;8.346;2022-12-05T04:03:27;20.63;;;14.27;;
5054;SDS011;13829;48.990;8.346;2022-12-05T04:06:04;22.67;;;14.30;;
5054;SDS011;13829;48.990;8.346;2022-12-05T04:08:39;20.57;;;13.77;;
5054;SDS011;13829;48.990;8.346;2022-12-05T04:11:15;22.57;;;14.67;;
5054;SDS011;13829;48.990;8.346;2022-12-05T04:13:47;21.33;;;14.70;;
5054;SDS011;13829;48.990;8.346;2022-12-05T04:16:18;23.17;;;14.40;;
5054;SDS011;13829;48.990;8.346;2022-12-05T04:19:13;20.40;;;13.37;;
5054;SDS011;13829;48.990;8.346;2022-12-05T04:21:49;21.80;;;13.77;;
5054;SDS011;13829;48.990;8.346;2022-12-05T04:24:20;22.63;;;14.80;;
5054;SDS011;13829;48.990;8.346;2022-12-05T04:27:11;19.83;;;13.30;;
5054;SDS011;13829;48.990;8.346;2022-12-05T04:29:53;18.23;;;13.07;;
5054;SDS011;13829;48.990;8.346;2022-12-05T04:32:29;22.60;;;14.20;;
5054;SDS011;13829;48.990;8.346;2022-12-05T04:35:08;21.47;;;14.53;;
5054;SDS011;13829;48.990;8.346;2022-12-05T04:37:43;19.50;;;12.87;;
5054;SDS011;13829;48.990;8.346;2022-12-05T04:40:19;17.53;;;12.37;;
5054;SDS011;13829;48.990;8.346;2022-12-05T04:42:54;18.63;;;12.40;;
5054;SDS011;13829;48.990;8.346;2022-12-05T04:45:25;20.17;;;13.27;;
5054;SDS011;13829;48.990;8.346;2022-12-05T04:47:54;21.67;;;14.53;;
5054;SDS011;13829;48.990;8.346;2022-12-05T04:50:28;19.70;;;13.10;;
5054;SDS011;13829;48.990;8.346;2022-12-05T04:53:00;18.67;;;12.67;;
5054;SDS011;13829;48.990;8.346;2022-12-05T04:55:29;22.20;;;14.17;;
5054;SDS011;13829;48.990;8.346;2022-12-05T04:58:02;19.53;;;12.77;;
5054;SDS011;13829;48.990;8.346;2022-12-05T05:00:36;20.17;;;13.60;;
5054;SDS011;13829;48.990;8.346;2022-12-05T05:03:13;19.77;;;12.53;;
5054;SDS011;13829;48.990;8.346;2022-12-05T05:05:48;16.80;;;11.90;;
5054;SDS011;13829;48.990;8.346;2022-12-05T05:08:20;18.57;;;12.50;;
5054;SDS011;13829;48.990;8.346;2022-12-05T05:10:53;17.67;;;12.47;;
5054;SDS011;13829;48.990;8.346;2022-12-05T05:13:31;18.33;;;12.43;;
5054;SDS011;13829;48.990;8.346;2022-12-05T05:15:58;17.47;;;12.57;;
5054;SDS011;13829;48.990;8.346;2022-12-05T05:18:25;17.90;;;11.97;;
5054;SDS011;13829;48.990;8.346;2022-12-05T05:20:53;19.53;;;11.93;;
5054;SDS011;13829;48.990;8.346;2022-12-05T05:23:20;18.13;;;12.23;;
5054;SDS011;13829;48.990;8.346;2022-12-05T05:25:51;17.83;;;12.67;;
5054;SDS011;13829;48.990;8.346;2022-12-05T05:28:18;20.60;;;12.30;;
5054;SDS011;13829;48.990;8.346;2022-12-05T05:30:46;17.83;;;13.10;;
5054;SDS011;13829;48.990;8.346;2022-12-05T05:33:14;18.07;;;13.57;;
5054;SDS011;13829;48.990;8.346;2022-12-05T05:35:41;20.07;;;12.93;;
5054;SDS011;13829;48.990;8.346;2022-12-05T05:38:09;17.10;;;12.60;;
5054;SDS011;13829;48.990;8.346;2022-12-05T05:40:36;16.03;;;11.83;;
5054;SDS011;13829;48.990;8.346;2022-12-05T05:43:03;17.70;;;12.10;;
5054;SDS011;13829;48.990;8.346;2022-12-05T05:45:30;19.43;;;12.93;;
5054;SDS011;13829;48.990;8.346;2022-12-05T05:47:57;17.80;;;11.83;;
5054;SDS011;13829;48.990;8.346;2022-12-05T05:50:24;17.00;;;12.20;;
5054;SDS011;13829;48.990;8.346;2022-12-05T05:52:51;15.97;;;11.90;;
5054;SDS011;13829;48.990;8.346;2022-12-05T05:55:19;16.70;;;12.40;;
5054;SDS011;13829;48.990;8.346;2022-12-05T05:57:46;17.20;;;13.20;;
5054;SDS011;13829;48.990;8.346;2022-12-05T06:00:13;18.87;;;12.77;;
5054;SDS011;13829;48.990;8.346;2022-12-05T06:02:41;19.57;;;13.20;;
5054;SDS011;13829;48.990;8.346;2022-12-05T06:05:08;19.13;;;12.23;;
5054;SDS011;13829;48.990;8.346;2022-12-05T06:07:35;17.77;;;12.33;;
5054;SDS011;13829;48.990;8.346;2022-12-05T06:10:02;18.03;;;12.77;;
5054;SDS011;13829;48.990;8.346;2022-12-05T06:12:31;19.43;;;12.50;;
5054;SDS011;13829;48.990;8.346;2022-12-05T06:14:59;17.13;;;12.03;;
5054;SDS011;13829;48.990;8.346;2022-12-05T06:17:26;16.43;;;12.17;;
5054;SDS011;13829;48.990;8.346;2022-12-05T06:19:52;17.53;;;12.33;;
5054;SDS011;13829;48.990;8.346;2022-12-05T06:22:19;17.13;;;11.63;;
5054;SDS011;13829;48.990;8.346;2022-12-05T06:24:46;19.90;;;13.20;;
5054;SDS011;13829;48.990;8.346;2022-12-05T06:27:13;20.73;;;13.10;;
5054;SDS011;13829;48.990;8.346;2022-12-05T06:29:41;17.70;;;12.77;;
5054;SDS011;13829;48.990;8.346;2022-12-05T06:32:08;19.80;;;13.50;;
5054;SDS011;13829;48.990;8.346;2022-12-05T06:34:35;17.17;;;12.40;;
5054;SDS011;13829;48.990;8.346;2022-12-05T06:37:02;17.40;;;12.50;;
5054;SDS011;13829;48.990;8.346;2022-12-05T06:39:29;17.53;;;12.13;;
5054;SDS011;13829;48.990;8.346;2022-12-05T06:41:56;17.37;;;11.83;;
5054;SDS011;13829;48.990;8.346;2022-12-05T06:44:23;20.90;;;12.73;;
5054;SDS011;13829;48.990;8.346;2022-12-05T06:46:54;19.83;;;12.50;;
5054;SDS011;13829;48.990;8.346;2022-12-05T06:49:21;17.77;;;12.60;;
5054;SDS011;13829;48.990;8.346;2022-12-05T06:51:50;17.20;;;11.80;;
5054;SDS011;13829;48.990;8.346;2022-12-05T06:54:18;17.37;;;12.27;;
5054;SDS011;13829;48.990;8.346;2022-12-05T06:56:45;16.53;;;12.47;;
5054;SDS011;13829;48.990;8.346;2022-12-05T06:59:12;17.93;;;12.57;;
5054;SDS011;13829;48.990;8.346;2022-12-05T07:01:39;19.83;;;13.20;;
5054;SDS011;13829;48.990;8.346;2022-12-05T07:04:09;19.27;;;12.57;;
5054;SDS011;13829;48.990;8.346;2022-12-05T07:06:39;18.17;;;12.27;;
5054;SDS011;13829;48.990;8.346;2022-12-05T07:09:09;18.07;;;12.83;;
5054;SDS011;13829;48.990;8.346;2022-12-05T07:11:36;18.93;;;12.77;;
5054;SDS011;13829;48.990;8.346;2022-12-05T07:14:03;18.47;;;12.93;;
5054;SDS011;13829;48.990;8.346;2022-12-05T07:16:33;21.40;;;13.37;;
5054;SDS011;13829;48.990;8.346;2022-12-05T07:19:01;20.87;;;13.80;;
5054;SDS011;13829;48.990;8.346;2022-12-05T07:21:29;18.77;;;12.83;;
5054;SDS011;13829;48.990;8.346;2022-12-05T07:23:56;20.40;;;13.50;;
5054;SDS011;13829;48.990;8.346;2022-12-05T07:26:23;21.10;;;13.50;;
5054;SDS011;13829;48.990;8.346;2022-12-05T07:28:50;19.37;;;12.27;;
5054;SDS011;13829;48.990;8.346;2022-12-05T07:31:21;18.77;;;13.30;;
5054;SDS011;13829;48.990;8.346;2022-12-05T07:33:50;19.80;;;13.70;;
5054;SDS011;13829;48.990;8.346;2022-12-05T07:36:20;18.77;;;12.30;;
5054;SDS011;13829;48.990;8.346;2022-12-05T07:38:53;22.30;;;15.43;;
5054;SDS011;13829;48.990;8.346;2022-12-05T07:41:22;19.67;;;14.27;;
5054;SDS011;13829;48.990;8.346;2022-12-05T07:43:52;18.87;;;13.83;;
5054;SDS011;13829;48.990;8.346;2022-12-05T07:46:21;18.77;;;13.67;;
5054;SDS011;13829;48.990;8.346;2022-12-05T07:48:49;18.97;;;12.70;;
5054;SDS011;13829;48.990;8.346;2022-12-05T07:51:16;20.37;;;12.83;;
5054;SDS011;13829;48.990;8.346;2022-12-05T07:53:45;16.27;;;11.10;;
5054;SDS011;13829;48.990;8.346;2022-12-05T07:56:14;14.53;;;11.57;;
5054;SDS011;13829;48.990;8.346;2022-12-05T07:58:42;20.60;;;13.00;;
5054;SDS011;13829;48.990;8.346;2022-12-05T08:01:11;22.30;;;13.33;;
5054;SDS011;13829;48.990;8.346;2022-12-05T08:03:41;17.20;;;11.90;;
5054;SDS011;13829;48.990;8.346;2022-12-05T08:06:10;17.57;;;12.23;;
5054;SDS011;13829;48.990;8.346;2022-12-05T08:08:40;17.67;;;12.37;;
5054;SDS011;13829;48.990;8.346;2022-12-05T08:11:08;18.73;;;12.93;;
5054;SDS011;13829;48.990;8.346;2022-12-05T08:13:40;18.83;;;13.20;;
5054;SDS011;13829;48.990;8.346;2022-12-05T08:16:08;17.70;;;12.33;;
5054;SDS011;13829;48.990;8.346;2022-12-05T08:18:38;19.20;;;13.33;;
5054;SDS011;13829;48.990;8.346;2022-12-05T08:21:07;18.00;;;12.17;;
5054;SDS011;13829;48.990;8.346;2022-12-05T08:23:37;18.53;;;12.87;;
5054;SDS011;13829;48.990;8.346;2022-12-05T08:26:06;19.07;;;13.20;;
5054;SDS011;13829;48.990;8.346;2022-12-05T08:28:36;19.77;;;13.20;;
5054;SDS011;13829;48.990;8.346;2022-12-05T08:31:05;19.57;;;12.87;;
5054;SDS011;13829;48.990;8.346;2022-12-05T08:33:34;17.80;;;12.27;;
5054;SDS011;13829;48.990;8.346;2022-12-05T08:36:02;18.83;;;13.70;;
5054;SDS011;13829;48.990;8.346;2022-12-05T08:38:31;20.10;;;12.93;;
5054;SDS011;13829;48.990;8.346;2022-12-05T08:40:59;19.30;;;13.17;;
5054;SDS011;13829;48.990;8.346;2022-12-05T08:43:27;19.43;;;13.50;;
5054;SDS011;13829;48.990;8.346;2022-12-05T08:45:55;19.43;;;14.07;;
5054;SDS011;13829;48.990;8.346;2022-12-05T08:48:24;19.03;;;13.03;;
5054;SDS011;13829;48.990;8.346;2022-12-05T08:50:51;20.67;;;13.47;;
5054;SDS011;13829;48.990;8.346;2022-12-05T08:53:18;21.30;;;13.30;;
5054;SDS011;13829;48.990;8.346;2022-12-05T08:55:46;19.17;;;12.50;;
5054;SDS011;13829;48.990;8.346;2022-12-05T08:58:13;20.27;;;14.40;;
5054;SDS011;13829;48.990;8.346;2022-12-05T09:00:40;19.57;;;13.53;;
5054;SDS011;13829;48.990;8.346;2022-12-05T09:03:08;21.30;;;13.70;;
5054;SDS011;13829;48.990;8.346;2022-12-05T09:05:38;21.87;;;14.47;;
5054;SDS011;13829;48.990;8.346;2022-12-05T09:08:05;23.07;;;13.80;;
5054;SDS011;13829;48.990;8.346;2022-12-05T09:10:33;19.57;;;13.10;;
5054;SDS011;13829;48.990;8.346;2022-12-05T09:13:00;22.73;;;14.33;;
5054;SDS011;13829;48.990;8.346;2022-12-05T09:15:27;19.57;;;13.20;;
5054;SDS011;13829;48.990;8.346;2022-12-05T09:17:54;19.60;;;14.17;;
5054;SDS011;13829;48.990;8.346;2022-12-05T09:20:21;19.37;;;13.80;;
5054;SDS011;13829;48.990;8.346;2022-12-05T09:22:49;21.77;;;14.03;;
5054;SDS011;13829;48.990;8.346;2022-12-05T09:25:17;19.43;;;14.07;;
5054;SDS011;13829;48.990;8.346;2022-12-05T09:27:44;24.27;;;15.03;;
5054;SDS011;13829;48.990;8.346;2022-12-05T09:30:12;20.70;;;13.87;;
5054;SDS011;13829;48.990;8.346;2022-12-05T09:32:40;22.63;;;15.00;;
5054;SDS011;13829;48.990;8.346;2022-12-05T09:35:07;23.67;;;14.57;;
5054;SDS011;13829;48.990;8.346;2022-12-05T09:37:35;23.10;;;15.37;;
5054;SDS011;13829;48.990;8.346;2022-12-05T09:40:04;21.03;;;14.13;;
5054;SDS011;13829;48.990;8.346;2022-12-05T09:42:37;21.50;;;15.07;;
5054;SDS011;13829;48.990;8.346;2022-12-05T09:45:21;22.37;;;15.33;;
5054;SDS011;13829;48.990;8.346;2022-12-05T09:47:58;24.37;;;15.00;;
5054;SDS011;13829;48.990;8.346;2022-12-05T09:50:32;22.83;;;13.57;;
5054;SDS011;13829;48.990;8.346;2022-12-05T09:53:10;20.37;;;13.80;;
5054;SDS011;13829;48.990;8.346;2022-12-05T09:55:54;22.27;;;14.60;;
5054;SDS011;13829;48.990;8.346;2022-12-05T09:58:41;21.33;;;14.77;;
5054;SDS011;13829;48.990;8.346;2022-12-05T10:01:18;22.10;;;15.13;;
5054;SDS011;13829;48.990;8.346;2022-12-05T10:04:04;24.37;;;15.33;;
5054;SDS011;13829;48.990;8.346;2022-12-05T10:06:55;24.30;;;15.40;;
5054;SDS011;13829;48.990;8.346;2022-12-05T10:09:35;22.80;;;15.57;;
5054;SDS011;13829;48.990;8.346;2022-12-05T10:12:21;20.87;;;13.63;;
5054;SDS011;13829;48.990;8.346;2022-12-05T10:15:10;21.67;;;13.63;;
5054;SDS011;13829;48.990;8.346;2022-12-05T10:17:45;19.13;;;13.83;;
5054;SDS011;13829;48.990;8.346;2022-12-05T10:20:23;19.63;;;13.50;;
5054;SDS011;13829;48.990;8.346;2022-12-05T10:22:58;22.57;;;14.83;;
5054;SDS011;13829;48.990;8.346;2022-12-05T10:25:30;24.90;;;14.70;;
5054;SDS011;13829;48.990;8.346;2022-12-05T10:28:02;22.53;;;14.97;;
5054;SDS011;13829;48.990;8.346;2022-12-05T10:30:40;19.67;;;14.30;;
5054;SDS011;13829;48.990;8.346;2022-12-05T10:33:12;24.30;;;15.73;;
5054;SDS011;13829;48.990;8.346;2022-12-05T10:35:46;23.37;;;14.53;;
5054;SDS011;13829;48.990;8.346;2022-12-05T10:38:18;20.67;;;14.73;;
5054;SDS011;13829;48.990;8.346;2022-12-05T10:40:51;23.57;;;15.50;;
5054;SDS011;13829;48.990;8.346;2022-12-05T10:43:25;21.57;;;14.77;;
5054;SDS011;13829;48.990;8.346;2022-12-05T10:45:55;21.27;;;15.00;;
5054;SDS011;13829;48.990;8.346;2022-12-05T10:48:23;21.20;;;14.60;;
5054;SDS011;13829;48.990;8.346;2022-12-05T10:50:51;22.90;;;14.20;;
5054;SDS011;13829;48.990;8.346;2022-12-05T10:53:22;20.07;;;14.07;;
5054;SDS011;13829;48.990;8.346;2022-12-05T10:55:52;21.50;;;13.77;;
5054;SDS011;13829;48.990;8.346;2022-12-05T10:58:22;21.80;;;13.30;;
5054;SDS011;13829;48.990;8.346;2022-12-05T11:00:54;19.60;;;13.50;;
5054;SDS011;13829;48.990;8.346;2022-12-05T11:03:25;20.87;;;14.43;;
5054;SDS011;13829;48.990;8.346;2022-12-05T11:05:56;20.87;;;14.63;;
5054;SDS011;13829;48.990;8.346;2022-12-05T11:08:26;22.83;;;14.07;;
5054;SDS011;13829;48.990;8.346;2022-12-05T11:11:00;21.67;;;14.80;;
5054;SDS011;13829;48.990;8.346;2022-12-05T11:13:32;17.87;;;13.20;;
5054;SDS011;13829;48.990;8.346;2022-12-05T11:16:00;18.57;;;13.33;;
5054;SDS011;13829;48.990;8.346;2022-12-05T11:18:29;20.03;;;13.90;;
5054;SDS011;13829;48.990;8.346;2022-12-05T11:21:09;22.13;;;14.73;;
5054;SDS011;13829;48.990;8.346;2022-12-05T11:23:39;20.53;;;13.50;;
5054;SDS011;13829;48.990;8.346;2022-12-05T11:26:13;20.57;;;13.87;;
5054;SDS011;13829;48.990;8.346;2022-12-05T11:28:59;21.20;;;13.60;;
5054;SDS011;13829;48.990;8.346;2022-12-05T11:31:27;20.83;;;13.57;;
5054;SDS011;13829;48.990;8.346;2022-12-05T11:34:00;18.73;;;12.90;;
5054;SDS011;13829;48.990;8.346;2022-12-05T11:36:38;19.60;;;12.73;;
5054;SDS011;13829;48.990;8.346;2022-12-05T11:39:11;19.73;;;13.57;;
5054;SDS011;13829;48.990;8.346;2022-12-05T11:45:00;19.00;;;12.80;;
5054;SDS011;13829;48.990;8.346;2022-12-05T11:47:54;19.47;;;13.40;;
5054;SDS011;13829;48.990;8.346;2022-12-05T11:51:10;19.23;;;13.00;;
5054;SDS011;13829;48.990;8.346;2022-12-05T11:54:08;22.07;;;14.83;;
5054;SDS011;13829;48.990;8.346;2022-12-05T11:57:06;16.87;;;11.50;;
5054;SDS011;13829;48.990;8.346;2022-12-05T12:02:59;16.80;;;11.83;;
5054;SDS011;13829;48.990;8.346;2022-12-05T12:06:09;15.43;;;11.23;;
5054;SDS011;13829;48.990;8.346;2022-12-05T12:08:55;16.00;;;11.93;;
5054;SDS011;13829;48.990;8.346;2022-12-05T12:11:48;14.73;;;11.47;;
5054;SDS011;13829;48.990;8.346;2022-12-05T12:14:24;15.27;;;10.60;;
5054;SDS011;13829;48.990;8.346;2022-12-05T12:17:07;13.77;;;10.23;;
5054;SDS011;13829;48.990;8.346;2022-12-05T12:19:56;15.07;;;10.67;;
5054;SDS011;13829;48.990;8.346;2022-12-05T12:22:46;13.77;;;9.93;;
5054;SDS011;13829;48.990;8.346;2022-12-05T12:25:46;13.10;;;10.07;;
5054;SDS011;13829;48.990;8.346;2022-12-05T12:28:32;13.57;;;10.43;;
5054;SDS011;13829;48.990;8.346;2022-12-05T12:34:25;14.90;;;10.37;;
5054;SDS011;13829;48.990;8.346;2022-12-05T12:37:16;15.33;;;10.80;;
5054;SDS011;13829;48.990;8.346;2022-12-05T12:39:56;14.40;;;10.13;;
5054;SDS011;13829;48.990;8.346;2022-12-05T12:42:39;13.77;;;10.13;;
5054;SDS011;13829;48.990;8.346;2022-12-05T12:48:29;14.23;;;9.77;;
5054;SDS011;13829;48.990;8.346;2022-12-05T12:51:16;14.10;;;10.60;;
5054;SDS011;13829;48.990;8.346;2022-12-05T12:56:54;14.40;;;10.40;;
5054;SDS011;13829;48.990;8.346;2022-12-05T12:59:40;11.80;;;8.57;;
5054;SDS011;13829;48.990;8.346;2022-12-05T13:02:24;11.13;;;8.60;;
5054;SDS011;13829;48.990;8.346;2022-12-05T13:05:03;10.80;;;8.40;;
5054;SDS011;13829;48.990;8.346;2022-12-05T13:07:46;9.97;;;8.03;;
5054;SDS011;13829;48.990;8.346;2022-12-05T13:10:21;12.33;;;8.60;;
5054;SDS011;13829;48.990;8.346;2022-12-05T13:12:58;11.13;;;8.17;;
5054;SDS011;13829;48.990;8.346;2022-12-05T13:15:30;12.30;;;8.83;;
5054;SDS011;13829;48.990;8.346;2022-12-05T13:18:01;13.87;;;8.53;;
5054;SDS011;13829;48.990;8.346;2022-12-05T13:20:31;10.30;;;8.13;;
5054;SDS011;13829;48.990;8.346;2022-12-05T13:23:02;9.60;;;7.63;;
5054;SDS011;13829;48.990;8.346;2022-12-05T13:25:32;12.07;;;8.43;;
5054;SDS011;13829;48.990;8.346;2022-12-05T13:28:05;10.80;;;8.20;;
5054;SDS011;13829;48.990;8.346;2022-12-05T13:30:48;11.97;;;7.97;;
5054;SDS011;13829;48.990;8.346;2022-12-05T13:33:31;11.63;;;8.80;;
5054;SDS011;13829;48.990;8.346;2022-12-05T13:36:03;12.77;;;9.10;;
5054;SDS011;13829;48.990;8.346;2022-12-05T13:39:00;11.43;;;7.90;;
5054;SDS011;13829;48.990;8.346;2022-12-05T13:41:48;10.57;;;8.27;;
5054;SDS011;13829;48.990;8.346;2022-12-05T13:44:37;11.63;;;8.37;;
5054;SDS011;13829;48.990;8.346;2022-12-05T13:47:18;10.97;;;7.53;;
5054;SDS011;13829;48.990;8.346;2022-12-05T13:49:53;12.10;;;8.43;;
5054;SDS011;13829;48.990;8.346;2022-12-05T13:52:28;11.20;;;7.07;;
5054;SDS011;13829;48.990;8.346;2022-12-05T13:55:16;5.43;;;4.20;;
5054;SDS011;13829;48.990;8.346;2022-12-05T13:57:53;6.10;;;4.93;;
5054;SDS011;13829;48.990;8.346;2022-12-05T14:00:25;4.33;;;3.93;;
5054;SDS011;13829;48.990;8.346;2022-12-05T14:03:03;3.97;;;3.53;;
5054;SDS011;13829;48.990;8.346;2022-12-05T14:05:45;3.90;;;3.20;;
5054;SDS011;13829;48.990;8.346;2022-12-05T14:11:22;3.20;;;2.80;;
5054;SDS011;13829;48.990;8.346;2022-12-05T14:13:49;2.60;;;2.40;;
5054;SDS011;13829;48.990;8.346;2022-12-05T14:25:34;4.37;;;2.10;;
5054;SDS011;13829;48.990;8.346;2022-12-05T14:28:23;3.00;;;2.37;;
5054;SDS011;13829;48.990;8.346;2022-12-05T14:31:28;2.73;;;2.43;;
5054;SDS011;13829;48.990;8.346;2022-12-05T14:34:17;2.97;;;2.50;;
5054;SDS011;13829;48.990;8.346;2022-12-05T14:36:53;3.00;;;2.37;;
5054;SDS011;13829;48.990;8.346;2022-12-05T14:39:28;2.13;;;1.70;;
5054;SDS011;13829;48.990;8.346;2022-12-05T14:42:02;3.13;;;2.60;;
5054;SDS011;13829;48.990;8.346;2022-12-05T14:44:46;2.63;;;2.30;;
5054;SDS011;13829;48.990;8.346;2022-12-05T14:47:17;3.00;;;2.10;;
5054;SDS011;13829;48.990;8.346;2022-12-05T14:49:53;2.33;;;2.10;;
5054;SDS011;13829;48.990;8.346;2022-12-05T14:52:26;3.80;;;1.80;;
5054;SDS011;13829;48.990;8.346;2022-12-05T14:55:00;1.83;;;1.70;;
5054;SDS011;13829;48.990;8.346;2022-12-05T14:57:36;2.33;;;2.13;;
5054;SDS011;13829;48.990;8.346;2022-12-05T15:00:16;2.63;;;1.97;;
5054;SDS011;13829;48.990;8.346;2022-12-05T15:02:48;3.27;;;2.30;;
5054;SDS011;13829;48.990;8.346;2022-12-05T15:05:21;3.00;;;2.70;;
5054;SDS011;13829;48.990;8.346;2022-12-05T15:07:52;4.47;;;2.43;;
5054;SDS011;13829;48.990;8.346;2022-12-05T15:10:22;13.30;;;2.80;;
5054;SDS011;13829;48.990;8.346;2022-12-05T15:12:53;2.63;;;2.33;;
5054;SDS011;13829;48.990;8.346;2022-12-05T15:15:30;3.10;;;2.80;;
5054;SDS011;13829;48.990;8.346;2022-12-05T15:18:08;4.73;;;2.93;;
5054;SDS011;13829;48.990;8.346;2022-12-05T15:20:47;2.87;;;2.30;;
5054;SDS011;13829;48.990;8.346;2022-12-05T15:26:17;2.20;;;2.00;;
5054;SDS011;13829;48.990;8.346;2022-12-05T15:28:58;3.30;;;3.00;;
5054;SDS011;13829;48.990;8.346;2022-12-05T15:31:32;4.13;;;2.87;;
5054;SDS011;13829;48.990;8.346;2022-12-05T15:34:04;5.87;;;3.40;;
5054;SDS011;13829;48.990;8.346;2022-12-05T15:36:42;4.20;;;3.70;;
5054;SDS011;13829;48.990;8.346;2022-12-05T15:39:16;4.63;;;4.20;;
5054;SDS011;13829;48.990;8.346;2022-12-05T15:41:50;4.90;;;4.50;;
5054;SDS011;13829;48.990;8.346;2022-12-05T15:44:18;4.47;;;3.70;;
5054;SDS011;13829;48.990;8.346;2022-12-05T15:46:51;4.20;;;3.80;;
5054;SDS011;13829;48.990;8.346;2022-12-05T15:49:20;3.90;;;3.50;;
5054;SDS011;13829;48.990;8.346;2022-12-05T15:51:51;3.83;;;3.43;;